Lisbon, Maine
Current Conditions -  °F | °C
As of 8:55 PM on Saturday 25 Oct 2014 (Local Time) from KLEW Reporting Station
Overcast Overcast  
Wind Chill: 46°   Ceiling: 9000
Heat Index: 48°   Visibility: 10mi
Dew Point: 39°   Wind: 5mph
Humidity: 71%   Direction: 160°SSE
Pressure: 29.49"   Gusts: NA
Location:  44.03°N, 70.1°W
Report Text: KLEW 260055Z AUTO 16004KT 10SM BKN090 OVC120 09/04 A2949 RMK AO1
Loading
Personal Weather Stations






























Interactive Weather Map
Tropical Storm Tracking
New forecast layout! Learn more

10-Day Weather Forecast

Advertisements
Track Severe Weather on mobile